createdAt,value
2023-04-08T00:00:55.351Z,52.63
2023-04-08T00:03:18.515Z,53.58
2023-04-08T00:05:41.403Z,51.28
2023-04-08T00:08:04.056Z,51.10
2023-04-08T00:10:26.838Z,53.13
2023-04-08T00:12:49.471Z,50.38
2023-04-08T00:15:12.047Z,50.83
2023-04-08T00:17:34.696Z,55.35
2023-04-08T00:19:58.215Z,50.80
2023-04-08T00:22:21.129Z,54.77
2023-04-08T00:24:43.736Z,48.92
2023-04-08T00:27:06.591Z,52.92
2023-04-08T00:29:29.570Z,49.75
2023-04-08T00:31:52.735Z,48.40
2023-04-08T00:34:15.540Z,45.60
2023-04-08T00:36:38.386Z,44.67
2023-04-08T00:39:01.256Z,48.97
2023-04-08T00:41:24.914Z,44.38
2023-04-08T00:43:47.533Z,47.83
2023-04-08T00:46:10.865Z,45.23
2023-04-08T00:48:34.195Z,45.45
2023-04-08T00:50:57.090Z,41.75
2023-04-08T00:53:20.377Z,43.55
2023-04-08T00:55:43.132Z,44.75
2023-04-08T00:58:05.968Z,45.93
2023-04-08T01:00:31.173Z,45.83
2023-04-08T01:03:14.816Z,43.40
2023-04-08T01:05:47.919Z,43.13
2023-04-08T01:08:11.921Z,46.33
2023-04-08T01:10:38.239Z,44.53
2023-04-08T01:13:04.869Z,44.72
2023-04-08T01:15:29.791Z,45.92
2023-04-08T01:17:56.394Z,45.55
2023-04-08T01:20:19.668Z,43.17
2023-04-08T01:23:00.816Z,44.23
2023-04-08T01:25:34.755Z,41.70
2023-04-08T01:27:59.423Z,41.38
2023-04-08T01:30:26.193Z,44.60
2023-04-08T01:32:52.243Z,46.13
2023-04-08T01:35:16.757Z,41.40
2023-04-08T01:37:40.543Z,43.30
2023-04-08T01:40:04.797Z,41.30
2023-04-08T01:42:33.450Z,45.92
2023-04-08T01:44:59.303Z,41.65
2023-04-08T01:47:23.731Z,43.67
2023-04-08T01:49:47.231Z,41.10
2023-04-08T01:52:10.692Z,42.58
2023-04-08T01:54:35.247Z,43.22
2023-04-08T01:56:59.423Z,45.78
2023-04-08T01:59:24.590Z,41.23
2023-04-08T02:01:47.926Z,43.20
2023-04-08T02:04:10.826Z,38.65
2023-04-08T02:06:33.849Z,42.50
2023-04-08T02:08:56.608Z,45.03
2023-04-08T02:11:19.242Z,40.00
2023-04-08T02:13:41.984Z,43.92
2023-04-08T02:16:12.763Z,44.55
2023-04-08T02:18:41.012Z,42.08
2023-04-08T02:21:11.192Z,42.15
2023-04-08T02:23:36.383Z,41.13
2023-04-08T02:25:59.487Z,42.00
2023-04-08T02:28:24.982Z,36.80
2023-04-08T02:30:50.533Z,39.63
2023-04-08T02:33:14.792Z,40.50
2023-04-08T02:35:40.654Z,40.43
2023-04-08T02:38:04.547Z,43.28
2023-04-08T02:40:30.374Z,40.67
2023-04-08T02:43:01.620Z,40.92
2023-04-08T02:45:30.166Z,41.33
2023-04-08T02:47:53.081Z,37.80
2023-04-08T02:50:16.487Z,42.03
2023-04-08T02:52:39.668Z,39.85
2023-04-08T02:55:02.569Z,40.50
2023-04-08T02:57:25.693Z,43.15
2023-04-08T02:59:50.311Z,42.93
2023-04-08T03:02:13.018Z,44.45
2023-04-08T03:04:36.044Z,41.72
2023-04-08T03:06:58.730Z,44.83
2023-04-08T03:09:21.487Z,39.97
2023-04-08T03:11:44.940Z,43.77
2023-04-08T03:14:07.848Z,40.55
2023-04-08T03:16:30.628Z,37.65
2023-04-08T03:18:53.394Z,42.53
2023-04-08T03:21:16.247Z,42.90
2023-04-08T03:23:38.907Z,41.03
2023-04-08T03:26:01.508Z,39.75
2023-04-08T03:28:28.085Z,41.17
2023-04-08T03:30:51.167Z,41.95
2023-04-08T03:33:13.881Z,42.17
2023-04-08T03:35:37.543Z,41.60
2023-04-08T03:38:00.298Z,39.78
2023-04-08T03:40:25.551Z,41.08
2023-04-08T03:42:48.199Z,41.65
2023-04-08T03:45:10.925Z,45.50
2023-04-08T03:47:34.596Z,42.43
2023-04-08T03:49:58.336Z,41.42
2023-04-08T03:52:21.340Z,41.78
2023-04-08T03:54:43.978Z,44.67
2023-04-08T03:57:06.617Z,43.88
2023-04-08T03:59:29.348Z,43.13
2023-04-08T04:01:53.674Z,43.90
2023-04-08T04:04:16.502Z,41.78
2023-04-08T04:06:39.306Z,40.08
2023-04-08T04:09:01.987Z,41.15
2023-04-08T04:11:24.703Z,46.13
2023-04-08T04:13:52.661Z,44.03
2023-04-08T04:16:15.298Z,46.03
2023-04-08T04:18:38.084Z,45.10
2023-04-08T04:21:00.921Z,41.05
2023-04-08T04:23:25.810Z,41.10
2023-04-08T04:25:48.979Z,43.17
2023-04-08T04:28:11.617Z,41.63
2023-04-08T04:30:37.274Z,43.00
2023-04-08T04:32:59.961Z,42.60
2023-04-08T04:35:22.649Z,40.00
2023-04-08T04:37:45.666Z,43.58
2023-04-08T04:40:09.073Z,39.65
2023-04-08T04:42:33.125Z,42.67
2023-04-08T04:44:55.798Z,42.60
2023-04-08T04:47:18.938Z,43.33
2023-04-08T04:49:42.162Z,39.97
2023-04-08T04:52:05.444Z,41.38
2023-04-08T04:54:28.264Z,38.25
2023-04-08T04:56:50.963Z,40.42
2023-04-08T04:59:20.875Z,39.83
2023-04-08T05:01:43.699Z,43.10
2023-04-08T05:04:06.679Z,39.58
2023-04-08T05:06:29.310Z,40.10
2023-04-08T05:08:52.190Z,40.20
2023-04-08T05:11:16.948Z,41.73
2023-04-08T05:13:39.678Z,39.70
2023-04-08T05:16:02.308Z,40.05
2023-04-08T05:18:25.029Z,42.63
2023-04-08T05:20:47.631Z,42.47
2023-04-08T05:23:10.372Z,39.67
2023-04-08T05:25:33.003Z,40.60
2023-04-08T05:27:56.106Z,42.17
2023-04-08T05:30:19.053Z,41.85
2023-04-08T05:32:41.956Z,39.28
2023-04-08T05:35:05.082Z,39.97
2023-04-08T05:37:27.815Z,40.08
2023-04-08T05:39:50.733Z,42.30
2023-04-08T05:42:13.981Z,41.47
2023-04-08T05:44:41.513Z,42.67
2023-04-08T05:47:04.357Z,39.60
2023-04-08T05:49:27.163Z,38.60
2023-04-08T05:51:50.502Z,39.85
2023-04-08T05:54:13.230Z,37.85
2023-04-08T05:56:36.422Z,38.97
2023-04-08T05:58:59.145Z,40.70
2023-04-08T06:01:22.417Z,37.67
2023-04-08T06:03:45.332Z,39.45
2023-04-08T06:06:14.084Z,36.53
2023-04-08T06:08:36.760Z,35.08
2023-04-08T06:10:59.405Z,39.07
2023-04-08T06:13:22.147Z,42.03
2023-04-08T06:15:44.761Z,37.35
2023-04-08T06:18:07.425Z,37.78
2023-04-08T06:20:30.314Z,37.33
2023-04-08T06:22:52.990Z,37.27
2023-04-08T06:25:15.811Z,39.33
2023-04-08T06:27:38.416Z,38.95
2023-04-08T06:30:03.653Z,34.40
2023-04-08T06:32:27.149Z,37.05
2023-04-08T06:34:49.805Z,45.63
2023-04-08T06:37:12.397Z,36.72
2023-04-08T06:39:35.133Z,38.88
2023-04-08T06:41:59.455Z,34.10
2023-04-08T06:44:31.992Z,40.45
2023-04-08T06:46:54.924Z,38.27
2023-04-08T06:49:17.601Z,36.83
2023-04-08T06:51:40.552Z,36.17
2023-04-08T06:54:03.269Z,33.45
2023-04-08T06:56:26.368Z,35.75
2023-04-08T06:58:49.249Z,35.40
2023-04-08T07:01:12.387Z,37.58
2023-04-08T07:03:35.177Z,32.55
2023-04-08T07:05:57.813Z,33.80
2023-04-08T07:08:20.710Z,38.13
2023-04-08T07:10:43.454Z,33.63
2023-04-08T07:13:06.252Z,35.33
2023-04-08T07:15:29.159Z,33.75
2023-04-08T07:17:52.360Z,28.55
2023-04-08T07:20:18.361Z,31.73
2023-04-08T07:22:41.016Z,29.97
2023-04-08T07:25:03.641Z,33.42
2023-04-08T07:27:26.301Z,32.40
2023-04-08T07:29:54.237Z,30.52
2023-04-08T07:32:17.523Z,31.88
2023-04-08T07:34:40.603Z,28.97
2023-04-08T07:37:03.280Z,32.08
2023-04-08T07:39:26.338Z,29.95
2023-04-08T07:41:48.957Z,30.25
2023-04-08T07:44:11.691Z,30.63
2023-04-08T07:46:38.518Z,31.60
2023-04-08T07:49:01.620Z,30.85
2023-04-08T07:51:24.311Z,28.17
2023-04-08T07:53:46.972Z,29.45
2023-04-08T07:56:13.820Z,26.35
2023-04-08T07:58:36.749Z,28.90
2023-04-08T08:00:59.580Z,29.38
2023-04-08T08:03:22.498Z,29.55
2023-04-08T08:05:45.159Z,21.08
2023-04-08T08:08:07.922Z,23.38
2023-04-08T08:10:30.879Z,16.97
2023-04-08T08:12:53.562Z,17.05
2023-04-08T08:15:16.118Z,20.17
2023-04-08T08:17:38.839Z,15.15
2023-04-08T08:20:04.504Z,16.13
2023-04-08T08:22:27.884Z,17.30
2023-04-08T08:24:56.445Z,16.05
2023-04-08T08:27:19.208Z,16.60
2023-04-08T08:29:44.621Z,17.27
2023-04-08T08:32:07.326Z,21.13
2023-04-08T08:34:30.056Z,17.73
2023-04-08T08:36:53.225Z,17.10
2023-04-08T08:39:15.914Z,19.83
2023-04-08T08:41:38.614Z,18.40
2023-04-08T08:44:03.141Z,17.90
2023-04-08T08:46:25.902Z,17.93
2023-04-08T08:48:48.601Z,18.00
2023-04-08T08:51:13.043Z,18.60
2023-04-08T08:53:36.119Z,19.50
2023-04-08T08:58:27.998Z,19.77
2023-04-08T09:00:50.743Z,20.02
2023-04-08T09:03:20.826Z,18.92
2023-04-08T09:05:58.433Z,19.42
2023-04-08T09:08:27.955Z,19.77
2023-04-08T09:10:50.601Z,20.13
2023-04-08T09:13:13.481Z,21.00
2023-04-08T09:15:36.121Z,18.70
2023-04-08T09:17:58.869Z,19.08
2023-04-08T09:20:21.882Z,20.63
2023-04-08T09:22:54.006Z,17.67
2023-04-08T09:25:29.930Z,19.08
2023-04-08T09:27:53.629Z,20.38
2023-04-08T09:30:16.602Z,18.23
2023-04-08T09:32:50.965Z,19.30
2023-04-08T09:35:13.620Z,18.10
2023-04-08T09:37:36.522Z,16.83
2023-04-08T09:39:59.739Z,16.90
2023-04-08T09:42:24.448Z,16.73
2023-04-08T09:44:47.813Z,15.68
2023-04-08T09:47:20.685Z,17.00
2023-04-08T09:50:05.714Z,16.25
2023-04-08T09:52:34.454Z,16.33
2023-04-08T09:55:05.404Z,15.40
2023-04-08T09:57:28.707Z,15.52
2023-04-08T10:00:04.338Z,15.77
2023-04-08T10:02:56.606Z,18.23
2023-04-08T10:05:21.207Z,16.45
2023-04-08T10:07:43.968Z,17.40
2023-04-08T10:10:11.933Z,18.48
2023-04-08T10:12:34.954Z,18.30
2023-04-08T10:15:32.115Z,17.63
2023-04-08T10:18:04.702Z,18.15
2023-04-08T10:20:34.243Z,18.27
2023-04-08T10:22:57.327Z,16.65
2023-04-08T10:25:19.903Z,16.30
2023-04-08T10:27:43.572Z,16.65
2023-04-08T10:30:26.666Z,17.90
2023-04-08T10:32:49.478Z,17.00
2023-04-08T10:35:12.560Z,16.77
2023-04-08T10:37:35.353Z,14.77
2023-04-08T10:39:59.776Z,16.75
2023-04-08T10:42:27.490Z,17.02
2023-04-08T10:44:51.407Z,17.00
2023-04-08T10:47:14.071Z,15.65
2023-04-08T10:49:38.001Z,17.30
2023-04-08T10:52:01.534Z,16.95
2023-04-08T10:54:24.305Z,18.52
2023-04-08T10:56:51.429Z,17.25
2023-04-08T10:59:20.206Z,16.27
2023-04-08T11:01:45.265Z,17.70
2023-04-08T11:04:13.569Z,18.85
2023-04-08T11:06:37.008Z,20.55
2023-04-08T11:09:04.228Z,19.52
2023-04-08T11:11:29.588Z,23.45
2023-04-08T11:13:53.997Z,22.87
2023-04-08T11:16:18.589Z,23.48
2023-04-08T11:18:41.753Z,20.63
2023-04-08T11:21:09.242Z,22.58
2023-04-08T11:23:32.243Z,24.55
2023-04-08T11:26:00.440Z,21.93
2023-04-08T11:28:23.569Z,21.65
2023-04-08T11:30:48.283Z,21.85
2023-04-08T11:33:13.012Z,21.95
2023-04-08T11:35:42.902Z,20.00
2023-04-08T11:38:05.766Z,22.13
2023-04-08T11:40:28.718Z,19.83
2023-04-08T11:42:52.063Z,22.15
2023-04-08T11:45:17.606Z,20.38
2023-04-08T11:47:40.642Z,20.92
2023-04-08T11:50:04.237Z,21.43
2023-04-08T11:52:47.116Z,21.80
2023-04-08T11:55:23.008Z,22.30
2023-04-08T11:57:45.659Z,21.05
2023-04-08T12:00:09.803Z,21.50
2023-04-08T12:02:36.839Z,19.80
2023-04-08T12:04:59.638Z,22.48
2023-04-08T12:07:22.334Z,23.02
2023-04-08T12:09:45.080Z,21.20
2023-04-08T12:12:07.722Z,23.50
2023-04-08T12:14:30.448Z,22.73
2023-04-08T12:16:53.320Z,20.90
2023-04-08T12:19:16.250Z,23.38
2023-04-08T12:21:39.514Z,23.48
2023-04-08T12:24:02.565Z,23.33
2023-04-08T12:26:25.238Z,23.57
2023-04-08T12:28:48.044Z,22.30
2023-04-08T12:31:11.084Z,23.80
2023-04-08T12:33:33.927Z,23.35
2023-04-08T12:35:59.305Z,24.73
2023-04-08T12:38:22.117Z,21.23
2023-04-08T12:40:44.803Z,23.00
2023-04-08T12:43:07.537Z,22.25
2023-04-08T12:45:30.258Z,20.52
2023-04-08T12:47:53.171Z,21.17
2023-04-08T12:50:16.394Z,21.53
2023-04-08T12:52:40.748Z,23.42
2023-04-08T12:55:03.419Z,23.25
2023-04-08T12:57:27.375Z,23.88
2023-04-08T12:59:51.174Z,22.70
2023-04-08T13:02:14.037Z,21.27
2023-04-08T13:04:36.844Z,20.08
2023-04-08T13:06:59.695Z,17.08
2023-04-08T13:09:23.055Z,16.52
2023-04-08T13:11:45.960Z,18.95
2023-04-08T13:14:08.825Z,20.47
2023-04-08T13:16:31.465Z,18.85
2023-04-08T13:18:54.294Z,17.88
2023-04-08T13:21:17.384Z,20.58
2023-04-08T13:23:40.141Z,18.95
2023-04-08T13:26:02.985Z,18.47
2023-04-08T13:28:25.801Z,15.85
2023-04-08T13:30:48.443Z,19.77
2023-04-08T13:33:11.349Z,18.55
2023-04-08T13:35:34.136Z,19.00
2023-04-08T13:37:56.990Z,18.43
2023-04-08T13:40:19.977Z,20.95
2023-04-08T13:42:43.260Z,21.65
2023-04-08T13:45:06.415Z,21.65
2023-04-08T13:47:29.159Z,20.25
2023-04-08T13:49:52.097Z,19.83
2023-04-08T13:52:15.694Z,17.25
2023-04-08T13:54:38.502Z,18.38
2023-04-08T13:57:01.507Z,17.90
2023-04-08T13:59:24.376Z,17.95
2023-04-08T14:01:47.148Z,18.07
2023-04-08T14:04:09.939Z,19.90
2023-04-08T14:06:32.699Z,20.23
2023-04-08T14:08:55.301Z,17.48
2023-04-08T14:11:17.946Z,17.55
2023-04-08T14:13:40.939Z,19.93
2023-04-08T14:16:03.589Z,21.38
2023-04-08T14:18:26.596Z,20.25
2023-04-08T14:20:49.199Z,22.00
2023-04-08T14:23:13.617Z,21.48
2023-04-08T14:25:36.883Z,24.03
2023-04-08T14:27:59.566Z,18.92
2023-04-08T14:30:22.710Z,20.13
2023-04-08T14:32:45.592Z,20.17
2023-04-08T14:35:08.903Z,16.77
2023-04-08T14:37:31.562Z,15.73
2023-04-08T14:39:54.333Z,18.25
2023-04-08T14:42:18.374Z,16.83
2023-04-08T14:44:41.480Z,16.73
2023-04-08T14:47:04.182Z,16.75
2023-04-08T14:49:26.906Z,15.57
2023-04-08T14:51:50.770Z,14.52
2023-04-08T14:54:16.872Z,14.48
2023-04-08T14:56:39.547Z,14.50
2023-04-08T14:59:02.296Z,13.80
2023-04-08T15:01:25.135Z,12.67
2023-04-08T15:03:48.475Z,13.20
2023-04-08T15:06:11.115Z,14.43
2023-04-08T15:08:35.144Z,14.50
2023-04-08T15:10:57.859Z,15.18
2023-04-08T15:13:20.725Z,16.13
2023-04-08T15:15:43.463Z,14.85
2023-04-08T15:18:06.234Z,15.20
2023-04-08T15:20:28.854Z,14.85
2023-04-08T15:22:51.962Z,18.40
2023-04-08T15:25:14.572Z,17.80
2023-04-08T15:27:37.701Z,14.73
2023-04-08T15:30:00.652Z,16.05
2023-04-08T15:32:23.373Z,16.92
2023-04-08T15:34:46.045Z,14.95
2023-04-08T15:37:08.622Z,15.90
2023-04-08T15:39:31.504Z,14.68
2023-04-08T15:41:54.400Z,15.80
2023-04-08T15:44:17.528Z,14.38
2023-04-08T15:46:40.609Z,13.60
2023-04-08T15:49:03.423Z,12.23
2023-04-08T15:51:27.103Z,11.10
2023-04-08T15:53:51.697Z,10.23
2023-04-08T15:56:16.376Z,11.48
2023-04-08T15:58:39.165Z,13.05
2023-04-08T16:01:02.472Z,12.83
2023-04-08T16:03:26.266Z,14.52
2023-04-08T16:05:49.343Z,12.45
2023-04-08T16:08:11.974Z,13.52
2023-04-08T16:10:34.953Z,14.60
2023-04-08T16:12:57.827Z,14.07
2023-04-08T16:15:20.750Z,15.15
2023-04-08T16:17:43.427Z,14.50
2023-04-08T16:20:06.654Z,15.55
2023-04-08T16:22:29.459Z,16.25
2023-04-08T16:24:53.156Z,15.83
2023-04-08T16:27:15.846Z,15.48
2023-04-08T16:29:38.607Z,16.08
2023-04-08T16:32:01.919Z,15.05
2023-04-08T16:34:24.594Z,15.57
2023-04-08T16:36:47.809Z,15.20
2023-04-08T16:39:10.670Z,15.65
2023-04-08T16:41:33.648Z,14.77
2023-04-08T16:43:56.430Z,15.80
2023-04-08T16:46:19.074Z,14.55
2023-04-08T16:48:43.877Z,14.07
2023-04-08T16:51:06.883Z,15.07
2023-04-08T16:53:29.596Z,15.68
2023-04-08T16:55:52.285Z,15.18
2023-04-08T16:58:15.057Z,15.68
2023-04-08T17:00:39.046Z,15.53
2023-04-08T17:03:02.578Z,14.93
2023-04-08T17:05:28.410Z,16.25
2023-04-08T17:07:51.568Z,15.23
2023-04-08T17:10:14.725Z,14.65
2023-04-08T17:12:37.692Z,17.43
2023-04-08T17:15:00.557Z,15.07
2023-04-08T17:17:23.262Z,17.92
2023-04-08T17:19:45.927Z,17.08
2023-04-08T17:22:08.674Z,18.77
2023-04-08T17:24:31.479Z,18.43
2023-04-08T17:26:54.251Z,21.20
2023-04-08T17:29:21.599Z,21.10
2023-04-08T17:31:44.681Z,20.88
2023-04-08T17:34:07.946Z,20.33
2023-04-08T17:36:31.405Z,21.33
2023-04-08T17:38:54.264Z,23.65
2023-04-08T17:41:29.859Z,23.17
2023-04-08T17:43:59.838Z,24.98
2023-04-08T17:46:22.730Z,24.17
2023-04-08T17:48:46.483Z,23.37
2023-04-08T17:51:09.292Z,24.10
2023-04-08T17:53:33.694Z,26.85
2023-04-08T17:55:56.372Z,24.38
2023-04-08T17:58:19.112Z,19.67
2023-04-08T18:00:41.751Z,17.07
2023-04-08T18:03:04.812Z,17.65
2023-04-08T18:05:29.055Z,15.30
2023-04-08T18:07:51.994Z,16.17
2023-04-08T18:10:14.893Z,17.73
2023-04-08T18:12:37.976Z,17.50
2023-04-08T18:15:00.760Z,16.35
2023-04-08T18:17:23.425Z,15.82
2023-04-08T18:19:46.323Z,16.83
2023-04-08T18:22:09.062Z,18.55
2023-04-08T18:24:31.634Z,17.00
2023-04-08T18:27:03.479Z,18.10
2023-04-08T18:29:27.338Z,15.73
2023-04-08T18:31:50.495Z,17.58
2023-04-08T18:34:13.211Z,17.83
2023-04-08T18:36:35.894Z,16.17
2023-04-08T18:38:58.895Z,17.42
2023-04-08T18:41:23.975Z,18.33
2023-04-08T18:43:46.508Z,16.83
2023-04-08T18:46:09.076Z,17.55
2023-04-08T18:48:33.221Z,17.35
2023-04-08T18:50:55.951Z,17.83
2023-04-08T18:53:18.697Z,19.30
2023-04-08T18:55:42.121Z,19.02
2023-04-08T18:58:05.168Z,19.85
2023-04-08T19:00:27.893Z,21.33
2023-04-08T19:02:51.059Z,19.50
2023-04-08T19:05:13.844Z,19.47
2023-04-08T19:07:36.754Z,18.98
2023-04-08T19:09:59.400Z,20.27
2023-04-08T19:12:22.141Z,20.08
2023-04-08T19:14:44.733Z,20.48
2023-04-08T19:17:09.686Z,18.90
2023-04-08T19:19:32.732Z,19.58
2023-04-08T19:21:55.342Z,19.88
2023-04-08T19:24:18.083Z,21.85
2023-04-08T19:26:41.189Z,19.58
2023-04-08T19:29:03.796Z,23.27
2023-04-08T19:31:27.273Z,20.23
2023-04-08T19:33:51.116Z,20.02
2023-04-08T19:36:14.104Z,23.27
2023-04-08T19:38:37.099Z,22.30
2023-04-08T19:40:59.752Z,21.97
2023-04-08T19:43:22.319Z,21.65
2023-04-08T19:45:44.989Z,24.83
2023-04-08T19:48:07.748Z,22.55
2023-04-08T19:50:30.456Z,24.63
2023-04-08T19:52:53.166Z,23.90
2023-04-08T19:55:16.208Z,24.70
2023-04-08T19:57:39.331Z,24.05
2023-04-08T20:00:02.488Z,27.50
2023-04-08T20:02:29.523Z,31.60
2023-04-08T20:04:52.731Z,30.30
2023-04-08T20:07:15.458Z,30.70
2023-04-08T20:09:38.470Z,31.60
2023-04-08T20:12:04.773Z,30.67
2023-04-08T20:14:27.448Z,30.27
2023-04-08T20:16:50.042Z,30.33
2023-04-08T20:19:12.756Z,28.70
2023-04-08T20:21:35.325Z,30.85
2023-04-08T20:24:01.692Z,28.95
2023-04-08T20:26:24.267Z,30.63
2023-04-08T20:28:46.881Z,31.33
2023-04-08T20:31:09.688Z,33.72
2023-04-08T20:33:32.544Z,34.10
2023-04-08T20:35:57.280Z,30.27
2023-04-08T20:38:19.928Z,30.42
2023-04-08T20:40:44.222Z,30.17
2023-04-08T20:43:06.942Z,31.45
2023-04-08T20:45:30.797Z,30.40
2023-04-08T20:47:54.375Z,30.40
2023-04-08T20:50:17.261Z,32.05
2023-04-08T20:52:40.179Z,31.50
2023-04-08T20:55:02.814Z,34.05
2023-04-08T20:57:25.927Z,37.65
2023-04-08T21:02:26.212Z,39.20
2023-04-08T21:04:49.096Z,37.73
2023-04-08T21:07:11.719Z,35.22
2023-04-08T21:09:34.370Z,36.38
2023-04-08T21:11:57.815Z,37.60
2023-04-08T21:14:20.314Z,39.97
2023-04-08T21:16:43.020Z,41.20
2023-04-08T21:19:06.044Z,45.05
2023-04-08T21:21:28.825Z,42.15
2023-04-08T21:23:51.298Z,42.83
2023-04-08T21:26:14.013Z,42.28
2023-04-08T21:28:36.656Z,34.13
2023-04-08T21:31:13.081Z,41.20
2023-04-08T21:33:36.104Z,41.13
2023-04-08T21:35:58.740Z,41.88
2023-04-08T21:38:21.339Z,43.00
2023-04-08T21:40:44.129Z,42.03
2023-04-08T21:43:06.741Z,40.13
2023-04-08T21:45:30.025Z,39.63
2023-04-08T21:47:53.323Z,40.45
2023-04-08T21:50:16.411Z,40.25
2023-04-08T21:52:40.050Z,39.73
2023-04-08T21:55:04.766Z,39.63
2023-04-08T21:57:27.414Z,36.90
2023-04-08T21:59:50.206Z,35.83
2023-04-08T22:02:13.166Z,36.47
2023-04-08T22:04:36.030Z,40.63
2023-04-08T22:06:58.689Z,39.97
2023-04-08T22:09:21.612Z,39.35
2023-04-08T22:11:44.218Z,36.78
2023-04-08T22:14:06.991Z,35.65
2023-04-08T22:16:32.203Z,37.37
2023-04-08T22:18:55.011Z,39.33
2023-04-08T22:21:17.593Z,34.80
2023-04-08T22:23:40.756Z,37.40
2023-04-08T22:26:03.486Z,37.47
2023-04-08T22:28:26.058Z,33.67
2023-04-08T22:30:48.695Z,33.15
2023-04-08T22:33:11.292Z,33.60
2023-04-08T22:35:33.956Z,30.92
2023-04-08T22:37:56.611Z,31.90
2023-04-08T22:40:19.379Z,31.97
2023-04-08T22:42:41.944Z,32.92
2023-04-08T22:45:05.864Z,32.92
2023-04-08T22:47:28.483Z,28.90
2023-04-08T22:49:51.147Z,31.23
2023-04-08T22:52:13.790Z,31.63
2023-04-08T22:54:37.248Z,35.00
2023-04-08T22:56:59.777Z,30.13
2023-04-08T22:59:22.453Z,30.17
2023-04-08T23:01:45.582Z,30.85
2023-04-08T23:04:09.291Z,33.03
2023-04-08T23:06:32.814Z,33.05
2023-04-08T23:08:55.475Z,34.25
2023-04-08T23:11:18.157Z,34.05
2023-04-08T23:13:41.330Z,31.65
2023-04-08T23:16:04.310Z,32.27
2023-04-08T23:18:27.105Z,30.90
2023-04-08T23:20:56.301Z,32.65
2023-04-08T23:23:19.874Z,33.00
2023-04-08T23:25:42.439Z,29.75
2023-04-08T23:28:05.598Z,31.37
2023-04-08T23:30:28.380Z,30.92
2023-04-08T23:32:51.180Z,30.38
2023-04-08T23:35:14.008Z,30.70
2023-04-08T23:37:36.704Z,28.95
2023-04-08T23:39:59.506Z,24.87
2023-04-08T23:42:27.112Z,29.35
2023-04-08T23:44:49.897Z,27.40
2023-04-08T23:47:12.526Z,26.63
2023-04-08T23:49:35.482Z,25.83
2023-04-08T23:51:58.100Z,27.57
2023-04-08T23:54:21.235Z,28.73
2023-04-08T23:56:44.074Z,26.48
2023-04-08T23:59:07.089Z,28.27
